This is the latest recevied weather packets stored in our database for station/object WG7B. If no packets are shown the sender has not sent any weather packets the latest 10 day(s).
| Time | Temp. | Humidity | Pressure | Rain* | Wind** | Luminosity | Snow |
|---|---|---|---|---|---|---|---|
| 1777399221 | 27.78° C | 22% | 1015.9 hPa | 0 mm | - | - | - |
| 1777397426 | 26.67° C | 23% | 1015.9 hPa | 0 mm | - | - | - |
| 1777395633 | 25.56° C | 25% | 1016 hPa | 0 mm | - | - | - |
| 1777393817 | 23.89° C | 26% | 1016.1 hPa | 0 mm | - | - | - |
| 1777383616 | 16.11° C | 39% | 1015 hPa | 0 mm | - | - | - |
| 1777380633 | 14.44° C | 38% | 1014.3 hPa | 0 mm | - | - | - |
| 1777378252 | 15° C | 37% | 1013.6 hPa | 0 mm | - | - | - |
| 1777372830 | 16.11° C | 34% | 1013.3 hPa | 0 mm | - | - | - |
| 1777367423 | 17.78° C | 30% | 1013.1 hPa | 0 mm | - | - | - |
| 1777366233 | 17.78° C | 29% | 1013.4 hPa | 0 mm | - | - | - |
| 1777365628 | 18.33° C | 29% | 1013.4 hPa | 0 mm | - | - | - |
| 1777364419 | 18.33° C | 28% | 1013.5 hPa | 0 mm | - | - | - |
| 1777363833 | 18.89° C | 28% | 1013.4 hPa | 0 mm | - | - | - |
| 1777363228 | 18.89° C | 28% | 1013.3 hPa | 0 mm | - | - | - |
| 1777357826 | 20.56° C | 27% | 1013.1 hPa | 0 mm | - | - | - |
| 1777355429 | 20.56° C | 26% | 1012.8 hPa | 0 mm | - | - | - |
| 1777354822 | 20.56° C | 26% | 1012.8 hPa | 0 mm | - | - | - |
| 1777350625 | 21.67° C | 23% | 1012.2 hPa | 0 mm | - | - | - |
| 1777349434 | 22.22° C | 22% | 1011.8 hPa | 0 mm | - | - | - |
| 1777347640 | 22.78° C | 22% | 1011 hPa | 0 mm | - | - | - |
| 1777340418 | 25.56° C | 20% | 1009.5 hPa | 0 mm | - | - | - |
| 1777337433 | 27.22° C | 18% | 1009.6 hPa | 0 mm | - | - | - |
| 1777336849 | 27.22° C | 18% | 1009.5 hPa | 0 mm | - | - | - |
| 1777330821 | 28.33° C | 18% | 1009.9 hPa | 0 mm | - | - | - |
| 1777330239 | 28.33° C | 18% | 1009.7 hPa | 0 mm | - | - | - |
* Rain latest hour (hover to see other rain measurements)
** Current wind speed in m/s (hover to see current wind gust speed)